createdAt,value
2019-05-11T00:00:38.252Z,35.92
2019-05-11T00:03:06.679Z,22.60
2019-05-11T00:05:35.134Z,33.28
2019-05-11T00:08:03.897Z,38.67
2019-05-11T00:10:32.342Z,34.85
2019-05-11T00:13:00.765Z,28.30
2019-05-11T00:15:29.222Z,31.97
2019-05-11T00:17:57.705Z,26.20
2019-05-11T00:20:26.133Z,29.50
2019-05-11T00:22:54.842Z,28.67
2019-05-11T00:25:23.304Z,21.87
2019-05-11T00:27:51.950Z,21.13
2019-05-11T00:30:20.381Z,23.85
2019-05-11T00:32:48.823Z,28.00
2019-05-11T00:35:17.383Z,26.20
2019-05-11T00:37:46.618Z,24.80
2019-05-11T00:40:15.297Z,24.00
2019-05-11T00:42:44.044Z,26.05
2019-05-11T00:45:12.553Z,31.12
2019-05-11T00:47:40.989Z,25.08
2019-05-11T00:50:09.866Z,21.50
2019-05-11T00:52:38.291Z,24.90
2019-05-11T00:55:07.585Z,28.23
2019-05-11T00:57:36.012Z,25.92
2019-05-11T01:00:06.800Z,27.48
2019-05-11T01:02:35.345Z,29.07
2019-05-11T01:05:04.649Z,31.12
2019-05-11T01:07:33.088Z,36.00
2019-05-11T01:10:01.543Z,30.10
2019-05-11T01:12:29.963Z,31.23
2019-05-11T01:14:58.400Z,28.87
2019-05-11T01:17:27.002Z,20.62
2019-05-11T01:19:55.668Z,24.82
2019-05-11T01:22:24.096Z,21.20
2019-05-11T01:24:52.544Z,26.60
2019-05-11T01:27:21.022Z,29.27
2019-05-11T01:29:49.449Z,30.27
2019-05-11T01:32:17.887Z,26.52
2019-05-11T01:34:46.305Z,24.20
2019-05-11T01:37:14.744Z,20.62
2019-05-11T01:39:43.191Z,24.20
2019-05-11T01:42:12.011Z,22.48
2019-05-11T01:44:40.439Z,19.87
2019-05-11T01:47:08.861Z,27.80
2019-05-11T01:49:37.292Z,27.02
2019-05-11T01:52:05.720Z,21.97
2019-05-11T01:54:34.192Z,39.83
2019-05-11T01:57:02.964Z,31.73
2019-05-11T01:59:31.388Z,25.80
2019-05-11T02:01:59.818Z,31.33
2019-05-11T02:04:28.243Z,30.92
2019-05-11T02:06:56.696Z,29.18
2019-05-11T02:09:25.167Z,27.42
2019-05-11T02:11:53.587Z,27.58
2019-05-11T02:14:22.273Z,21.97
2019-05-11T02:16:50.719Z,27.05
2019-05-11T02:19:19.155Z,25.17
2019-05-11T02:21:47.845Z,27.45
2019-05-11T02:24:16.275Z,22.58
2019-05-11T02:26:44.707Z,21.50
2019-05-11T02:29:13.132Z,25.62
2019-05-11T02:31:41.723Z,24.98
2019-05-11T02:34:10.161Z,21.27
2019-05-11T02:36:38.593Z,22.95
2019-05-11T02:39:07.965Z,26.73
2019-05-11T02:41:37.699Z,27.32
2019-05-11T02:44:06.422Z,28.57
2019-05-11T02:46:34.897Z,40.28
2019-05-11T02:49:03.502Z,29.55
2019-05-11T02:51:32.297Z,30.10
2019-05-11T02:54:02.277Z,27.50
2019-05-11T02:56:30.732Z,29.02
2019-05-11T02:58:59.319Z,22.20
2019-05-11T03:01:27.732Z,25.57
2019-05-11T03:03:56.167Z,24.98
2019-05-11T03:06:24.803Z,23.57
2019-05-11T03:08:53.195Z,32.95
2019-05-11T03:11:21.656Z,22.02
2019-05-11T03:13:50.073Z,33.08
2019-05-11T03:16:18.507Z,29.67
2019-05-11T03:18:46.954Z,32.25
2019-05-11T03:21:15.618Z,25.27
2019-05-11T03:23:44.140Z,25.27
2019-05-11T03:26:12.570Z,25.32
2019-05-11T03:28:41.037Z,26.00
2019-05-11T03:31:09.508Z,22.40
2019-05-11T03:33:38.029Z,23.30
2019-05-11T03:36:07.561Z,22.45
2019-05-11T03:38:35.987Z,23.10
2019-05-11T03:41:04.422Z,30.72
2019-05-11T03:43:32.841Z,30.30
2019-05-11T03:46:01.265Z,26.07
2019-05-11T03:48:29.701Z,21.00
2019-05-11T03:50:58.139Z,26.40
2019-05-11T03:53:26.629Z,33.25
2019-05-11T03:55:55.043Z,24.12
2019-05-11T03:58:26.146Z,26.73
2019-05-11T04:00:53.677Z,27.10
2019-05-11T04:03:22.073Z,30.30
2019-05-11T04:05:50.510Z,25.80
2019-05-11T04:08:18.940Z,22.48
2019-05-11T04:10:47.359Z,25.90
2019-05-11T04:13:15.807Z,26.60
2019-05-11T04:15:44.222Z,27.00
2019-05-11T04:18:12.685Z,26.30
2019-05-11T04:20:42.400Z,31.00
2019-05-11T04:25:38.536Z,27.35
2019-05-11T04:28:07.015Z,27.75
2019-05-11T04:30:35.384Z,25.80
2019-05-11T04:33:03.810Z,31.90
2019-05-11T04:35:32.241Z,26.90
2019-05-11T04:38:00.676Z,30.47
2019-05-11T04:40:29.679Z,25.00
2019-05-11T04:42:58.109Z,30.27
2019-05-11T04:45:26.528Z,26.07
2019-05-11T04:47:54.997Z,25.33
2019-05-11T04:50:23.422Z,26.97
2019-05-11T04:52:52.020Z,28.80
2019-05-11T04:55:20.468Z,28.60
2019-05-11T04:57:48.912Z,31.93
2019-05-11T05:00:17.867Z,30.70
2019-05-11T05:02:47.024Z,35.64
2019-05-11T05:05:15.450Z,34.78
2019-05-11T05:07:49.063Z,29.77
2019-05-11T05:10:19.669Z,32.42
2019-05-11T05:12:50.784Z,30.92
2019-05-11T05:15:14.557Z,40.75
2019-05-11T05:17:43.052Z,28.73
2019-05-11T05:20:12.412Z,25.35
2019-05-11T05:22:40.916Z,28.05
2019-05-11T05:25:09.442Z,25.88
2019-05-11T05:27:38.213Z,30.25
2019-05-11T05:30:07.379Z,25.12
2019-05-11T05:32:36.000Z,23.18
2019-05-11T05:35:06.388Z,25.70
2019-05-11T05:37:34.805Z,23.10
2019-05-11T05:40:03.403Z,25.82
2019-05-11T05:42:31.858Z,28.12
2019-05-11T05:45:00.283Z,23.52
2019-05-11T05:47:28.735Z,18.62
2019-05-11T05:49:59.410Z,21.55
2019-05-11T05:52:27.832Z,22.32
2019-05-11T05:54:56.270Z,25.08
2019-05-11T05:57:24.697Z,20.27
2019-05-11T05:59:53.148Z,25.12
2019-05-11T06:02:21.564Z,20.23
2019-05-11T06:04:49.992Z,18.82
2019-05-11T06:07:23.679Z,26.55
2019-05-11T06:09:52.314Z,15.80
2019-05-11T06:12:23.522Z,18.23
2019-05-11T06:14:52.531Z,22.20
2019-05-11T06:17:21.033Z,16.07
2019-05-11T06:19:49.466Z,19.20
2019-05-11T06:22:17.919Z,23.98
2019-05-11T06:24:46.345Z,17.55
2019-05-11T06:27:14.759Z,19.40
2019-05-11T06:29:43.206Z,15.80
2019-05-11T06:32:11.620Z,19.52
2019-05-11T06:34:40.039Z,23.32
2019-05-11T06:37:08.487Z,23.62
2019-05-11T06:39:36.925Z,16.03
2019-05-11T06:42:07.814Z,19.80
2019-05-11T06:44:35.518Z,15.28
2019-05-11T06:47:04.012Z,17.60
2019-05-11T06:49:32.439Z,15.95
2019-05-11T06:52:01.566Z,14.60
2019-05-11T06:54:29.981Z,23.93
2019-05-11T06:56:58.415Z,19.92
2019-05-11T06:59:27.021Z,18.07
2019-05-11T07:01:55.438Z,14.30
2019-05-11T07:04:23.880Z,14.65
2019-05-11T07:06:52.329Z,19.62
2019-05-11T07:09:20.828Z,14.63
2019-05-11T07:11:49.400Z,15.75
2019-05-11T07:14:21.040Z,16.62
2019-05-11T07:16:48.822Z,18.12
2019-05-11T07:19:17.278Z,9.33
2019-05-11T07:21:45.695Z,17.55
2019-05-11T07:24:14.152Z,15.93
2019-05-11T07:26:42.612Z,19.40
2019-05-11T07:29:11.042Z,16.32
2019-05-11T07:31:39.483Z,15.30
2019-05-11T07:34:08.223Z,14.77
2019-05-11T07:36:38.733Z,20.12
2019-05-11T07:39:08.281Z,10.32
2019-05-11T07:41:38.702Z,11.20
2019-05-11T07:44:07.042Z,15.65
2019-05-11T07:46:37.723Z,16.25
2019-05-11T07:49:08.563Z,12.35
2019-05-11T07:51:38.735Z,13.00
2019-05-11T07:54:08.474Z,9.78
2019-05-11T07:56:38.827Z,14.43
2019-05-11T07:59:08.008Z,11.12
2019-05-11T08:01:38.692Z,10.38
2019-05-11T08:04:07.802Z,16.55
2019-05-11T08:06:38.917Z,8.50
2019-05-11T08:09:08.543Z,11.08
2019-05-11T08:14:07.759Z,18.35
2019-05-11T08:16:39.149Z,22.87
2019-05-11T08:19:10.325Z,12.95
2019-05-11T08:21:38.879Z,11.83
2019-05-11T08:24:09.161Z,11.63
2019-05-11T08:26:38.641Z,10.45
2019-05-11T08:31:38.425Z,12.25
2019-05-11T08:34:08.878Z,14.60
2019-05-11T08:36:37.914Z,9.65
2019-05-11T08:39:08.060Z,12.33
2019-05-11T08:41:38.463Z,10.23
2019-05-11T08:44:08.884Z,8.18
2019-05-11T08:46:38.627Z,11.40
2019-05-11T08:51:38.677Z,16.35
2019-05-11T08:54:09.028Z,11.28
2019-05-11T08:56:38.301Z,14.60
2019-05-11T08:59:07.990Z,20.72
2019-05-11T09:01:39.345Z,10.15
2019-05-11T09:04:09.116Z,17.35
2019-05-11T09:06:37.837Z,12.90
2019-05-11T09:09:08.934Z,15.78
2019-05-11T09:11:38.957Z,6.20
2019-05-11T09:16:38.272Z,9.03
2019-05-11T09:19:08.776Z,9.03
2019-05-11T09:21:38.264Z,9.13
2019-05-11T09:26:38.667Z,9.65
2019-05-11T09:31:34.179Z,10.80
2019-05-11T09:34:02.653Z,10.95
2019-05-11T09:36:31.123Z,11.97
2019-05-11T09:38:59.517Z,12.05
2019-05-11T09:41:28.948Z,9.03
2019-05-11T09:43:58.650Z,12.63
2019-05-11T09:46:27.925Z,10.53
2019-05-11T09:48:58.902Z,7.63
2019-05-11T09:51:28.790Z,10.63
2019-05-11T09:53:58.757Z,12.55
2019-05-11T09:56:28.784Z,12.35
2019-05-11T09:58:58.140Z,9.05
2019-05-11T10:01:26.833Z,11.53
2019-05-11T10:03:55.326Z,6.62
2019-05-11T10:06:23.983Z,11.10
2019-05-11T10:08:52.423Z,6.90
2019-05-11T10:11:20.861Z,10.23
2019-05-11T10:13:49.293Z,7.97
2019-05-11T10:16:18.086Z,11.10
2019-05-11T10:18:49.141Z,7.60
2019-05-11T10:21:18.765Z,9.88
2019-05-11T10:23:49.051Z,11.53
2019-05-11T10:26:18.643Z,9.28
2019-05-11T10:31:18.131Z,7.53
2019-05-11T10:33:48.928Z,10.97
2019-05-11T10:36:18.813Z,7.12
2019-05-11T10:38:48.694Z,8.60
2019-05-11T10:41:18.151Z,14.55
2019-05-11T10:43:48.993Z,12.30
2019-05-11T10:48:48.296Z,6.17
2019-05-11T10:51:18.438Z,10.35
2019-05-11T10:53:51.637Z,10.18
2019-05-11T10:56:17.872Z,9.55
2019-05-11T10:58:48.203Z,7.10
2019-05-11T11:01:18.180Z,6.45
2019-05-11T11:03:48.367Z,6.28
2019-05-11T11:08:48.672Z,8.67
2019-05-11T11:11:18.463Z,9.43
2019-05-11T11:16:32.727Z,8.15
2019-05-11T11:18:48.665Z,8.13
2019-05-11T11:21:22.395Z,11.08
2019-05-11T11:26:18.351Z,11.03
2019-05-11T11:28:47.728Z,8.70
2019-05-11T11:31:18.738Z,9.58
2019-05-11T11:33:48.987Z,6.25
2019-05-11T11:36:17.959Z,10.25
2019-05-11T11:38:47.837Z,7.95
2019-05-11T11:41:18.668Z,6.90
2019-05-11T11:43:48.355Z,10.20
2019-05-11T11:48:48.572Z,6.37
2019-05-11T11:51:18.538Z,7.58
2019-05-11T11:56:18.914Z,9.48
2019-05-11T11:58:48.532Z,9.33
2019-05-11T12:01:18.672Z,10.72
2019-05-11T12:03:48.872Z,8.00
2019-05-11T12:06:19.997Z,7.10
2019-05-11T12:11:14.639Z,12.37
2019-05-11T12:13:43.088Z,7.47
2019-05-11T12:16:11.509Z,8.20
2019-05-11T12:18:39.955Z,6.60
2019-05-11T12:21:08.378Z,10.38
2019-05-11T12:23:38.114Z,8.63
2019-05-11T12:26:08.456Z,11.68
2019-05-11T12:28:38.235Z,8.53
2019-05-11T12:31:08.708Z,11.03
2019-05-11T12:33:38.544Z,8.88
2019-05-11T12:38:38.225Z,6.95
2019-05-11T12:41:08.726Z,6.97
2019-05-11T12:43:38.198Z,10.08
2019-05-11T12:46:08.029Z,10.72
2019-05-11T12:48:37.945Z,8.25
2019-05-11T12:51:07.957Z,11.30
2019-05-11T12:53:38.524Z,11.63
2019-05-11T12:56:08.255Z,10.30
2019-05-11T12:58:36.867Z,8.23
2019-05-11T13:01:05.328Z,13.05
2019-05-11T13:03:33.747Z,6.58
2019-05-11T13:06:02.257Z,8.80
2019-05-11T13:08:30.806Z,9.63
2019-05-11T13:10:59.251Z,12.70
2019-05-11T13:13:28.541Z,10.03
2019-05-11T13:15:58.583Z,17.23
2019-05-11T13:18:27.918Z,9.35
2019-05-11T13:20:58.620Z,10.83
2019-05-11T13:23:27.845Z,10.40
2019-05-11T13:25:58.348Z,6.05
2019-05-11T13:28:28.448Z,8.15
2019-05-11T13:30:57.932Z,9.18
2019-05-11T13:35:57.874Z,10.20
2019-05-11T13:38:28.110Z,9.05
2019-05-11T13:43:23.950Z,10.85
2019-05-11T13:45:52.388Z,6.45
2019-05-11T13:48:20.813Z,11.75
2019-05-11T13:50:49.293Z,7.22
2019-05-11T13:53:18.371Z,5.37
2019-05-11T13:55:48.105Z,6.87
2019-05-11T13:58:19.653Z,5.25
2019-05-11T14:00:48.092Z,6.83
2019-05-11T14:03:18.422Z,8.88
2019-05-11T14:08:18.559Z,9.13
2019-05-11T14:10:48.813Z,11.18
2019-05-11T14:13:18.162Z,5.62
2019-05-11T14:15:48.139Z,8.08
2019-05-11T14:18:18.093Z,8.80
2019-05-11T14:20:48.270Z,8.53
2019-05-11T14:23:18.292Z,7.28
2019-05-11T14:25:48.674Z,8.55
2019-05-11T14:28:17.994Z,7.60
2019-05-11T14:30:48.604Z,5.75
2019-05-11T14:35:46.162Z,5.42
2019-05-11T14:38:14.595Z,9.50
2019-05-11T14:40:43.014Z,5.67
2019-05-11T14:43:11.693Z,7.58
2019-05-11T14:45:40.131Z,9.53
2019-05-11T14:48:22.135Z,8.00
2019-05-11T14:50:38.823Z,7.62
2019-05-11T14:53:08.671Z,8.60
2019-05-11T14:55:38.148Z,9.68
2019-05-11T14:58:08.304Z,6.13
2019-05-11T15:03:07.870Z,5.40
2019-05-11T15:05:37.598Z,6.37
2019-05-11T15:08:08.705Z,5.67
2019-05-11T15:10:38.293Z,9.33
2019-05-11T15:13:08.072Z,7.47
2019-05-11T15:15:36.574Z,6.37
2019-05-11T15:18:05.066Z,11.60
2019-05-11T15:20:33.496Z,5.80
2019-05-11T15:23:01.947Z,9.30
2019-05-11T15:25:30.427Z,6.83
2019-05-11T15:27:58.952Z,7.25
2019-05-11T15:30:28.749Z,7.80
2019-05-11T15:32:58.447Z,9.30
2019-05-11T15:35:28.477Z,8.30
2019-05-11T15:37:58.236Z,10.40
2019-05-11T15:40:27.928Z,5.80
2019-05-11T15:42:58.547Z,7.03
2019-05-11T15:45:27.727Z,6.33
2019-05-11T15:47:58.717Z,7.37
2019-05-11T15:50:28.844Z,8.38
2019-05-11T15:52:58.201Z,7.93
2019-05-11T15:55:27.799Z,6.37
2019-05-11T15:57:56.680Z,9.73
2019-05-11T16:00:25.252Z,7.28
2019-05-11T16:02:53.696Z,5.73
2019-05-11T16:05:22.113Z,9.63
2019-05-11T16:07:50.808Z,6.90
2019-05-11T16:10:21.784Z,8.15
2019-05-11T16:12:50.236Z,6.47
2019-05-11T16:15:19.746Z,10.10
2019-05-11T16:17:49.170Z,7.10
2019-05-11T16:20:18.434Z,9.53
2019-05-11T16:22:47.963Z,5.97
2019-05-11T16:25:19.272Z,6.72
2019-05-11T16:30:20.926Z,6.60
2019-05-11T16:32:47.856Z,6.85
2019-05-11T16:35:17.950Z,6.85
2019-05-11T16:37:48.378Z,7.45
2019-05-11T16:40:20.137Z,8.05
2019-05-11T16:42:47.857Z,8.24
2019-05-11T16:45:19.032Z,10.60
2019-05-11T16:47:48.285Z,6.87
2019-05-11T16:50:18.233Z,10.60
2019-05-11T16:52:48.320Z,6.42
2019-05-11T16:55:18.288Z,10.30
2019-05-11T16:57:48.369Z,8.53
2019-05-11T17:00:17.863Z,6.62
2019-05-11T17:02:48.973Z,8.12
2019-05-11T17:07:48.286Z,7.30
2019-05-11T17:10:18.146Z,8.95
2019-05-11T17:12:48.413Z,7.58
2019-05-11T17:17:48.707Z,6.40
2019-05-11T17:20:18.729Z,6.40
2019-05-11T17:25:19.107Z,11.90
2019-05-11T17:27:48.776Z,5.67
2019-05-11T17:30:20.085Z,8.98
2019-05-11T17:32:49.522Z,10.68
2019-05-11T17:35:18.378Z,6.58
2019-05-11T17:37:48.469Z,8.72
2019-05-11T17:40:20.740Z,10.78
2019-05-11T17:42:48.218Z,7.90
2019-05-11T17:45:18.918Z,9.53
2019-05-11T17:47:47.235Z,13.25
2019-05-11T17:50:15.731Z,10.95
2019-05-11T17:52:44.192Z,13.28
2019-05-11T17:55:12.767Z,10.68
2019-05-11T17:57:42.001Z,10.75
2019-05-11T18:00:11.539Z,9.43
2019-05-11T18:02:40.333Z,8.40
2019-05-11T18:05:09.317Z,10.43
2019-05-11T18:07:38.523Z,14.25
2019-05-11T18:10:08.196Z,9.40
2019-05-11T18:12:38.995Z,10.93
2019-05-11T18:15:08.544Z,13.03
2019-05-11T18:17:37.172Z,7.95
2019-05-11T18:20:17.379Z,12.23
2019-05-11T18:22:39.333Z,10.53
2019-05-11T18:25:08.949Z,18.32
2019-05-11T18:27:38.736Z,14.80
2019-05-11T18:30:09.343Z,12.65
2019-05-11T18:32:39.597Z,9.15
2019-05-11T18:35:08.856Z,7.95
2019-05-11T18:37:38.948Z,13.68
2019-05-11T18:40:08.203Z,12.00
2019-05-11T18:42:38.316Z,15.60
2019-05-11T18:47:39.302Z,9.55
2019-05-11T18:50:08.383Z,12.68
2019-05-11T18:52:36.810Z,10.45
2019-05-11T18:55:08.445Z,9.35
2019-05-11T18:57:38.391Z,10.23
2019-05-11T19:02:38.502Z,11.15
2019-05-11T19:05:08.247Z,16.00
2019-05-11T19:07:38.758Z,15.10
2019-05-11T19:10:08.486Z,14.30
2019-05-11T19:12:37.642Z,11.45
2019-05-11T19:15:08.596Z,8.93
2019-05-11T19:20:08.426Z,12.63
2019-05-11T19:25:08.775Z,16.75
2019-05-11T19:27:36.549Z,9.45
2019-05-11T19:30:08.496Z,11.95
2019-05-11T19:32:38.301Z,12.20
2019-05-11T19:35:08.835Z,13.03
2019-05-11T19:37:38.626Z,18.37
2019-05-11T19:40:09.188Z,12.13
2019-05-11T19:42:54.185Z,15.80
2019-05-11T19:45:23.242Z,20.40
2019-05-11T19:47:51.690Z,12.68
2019-05-11T19:50:20.153Z,13.88
2019-05-11T19:52:48.527Z,9.00
2019-05-11T19:55:17.868Z,11.45
2019-05-11T19:57:48.274Z,14.10
2019-05-11T20:00:18.429Z,8.93
2019-05-11T20:02:47.391Z,10.10
2019-05-11T20:05:18.163Z,15.53
2019-05-11T20:07:48.278Z,14.18
2019-05-11T20:10:18.569Z,14.25
2019-05-11T20:12:48.354Z,13.20
2019-05-11T20:15:18.892Z,14.65
2019-05-11T20:17:48.718Z,8.53
2019-05-11T20:20:18.489Z,15.05
2019-05-11T20:22:48.353Z,11.10
2019-05-11T20:25:18.409Z,22.10
2019-05-11T20:27:48.319Z,13.88
2019-05-11T20:30:18.292Z,12.85
2019-05-11T20:32:48.337Z,20.27
2019-05-11T20:35:17.206Z,12.40
2019-05-11T20:37:45.636Z,22.70
2019-05-11T20:40:14.387Z,11.35
2019-05-11T20:42:42.829Z,13.08
2019-05-11T20:45:11.568Z,14.83
2019-05-11T20:47:39.982Z,11.35
2019-05-11T20:50:08.574Z,14.60
2019-05-11T20:52:38.970Z,20.55
2019-05-11T20:55:08.834Z,8.45
2019-05-11T20:57:39.304Z,16.57
2019-05-11T21:00:09.183Z,12.73
2019-05-11T21:02:38.222Z,13.55
2019-05-11T21:05:09.806Z,11.83
2019-05-11T21:07:38.795Z,12.78
2019-05-11T21:10:08.843Z,14.60
2019-05-11T21:12:38.616Z,16.75
2019-05-11T21:15:12.084Z,16.17
2019-05-11T21:17:40.476Z,12.20
2019-05-11T21:20:09.652Z,15.68
2019-05-11T21:22:40.625Z,12.47
2019-05-11T21:25:11.104Z,16.02
2019-05-11T21:27:39.553Z,10.63
2019-05-11T21:30:09.898Z,14.03
2019-05-11T21:32:39.574Z,12.98
2019-05-11T21:35:09.018Z,15.30
2019-05-11T21:37:39.055Z,9.10
2019-05-11T21:40:09.036Z,9.13
2019-05-11T21:42:39.084Z,19.87
2019-05-11T21:45:09.846Z,13.72
2019-05-11T21:47:39.484Z,14.30
2019-05-11T21:50:09.415Z,16.93
2019-05-11T21:52:38.693Z,13.50
2019-05-11T21:55:09.311Z,10.23
2019-05-11T21:57:38.664Z,10.63
2019-05-11T22:00:10.197Z,15.65
2019-05-11T22:02:39.237Z,11.12
2019-05-11T22:05:09.671Z,14.73
2019-05-11T22:10:09.168Z,19.35
2019-05-11T22:15:09.593Z,15.50
2019-05-11T22:17:39.647Z,9.55
2019-05-11T22:20:09.425Z,16.73
2019-05-11T22:22:38.865Z,11.83
2019-05-11T22:27:38.911Z,13.40
2019-05-11T22:30:08.723Z,9.35
2019-05-11T22:35:08.188Z,15.47
2019-05-11T22:37:38.629Z,19.02
2019-05-11T22:40:08.502Z,19.23
2019-05-11T22:42:37.299Z,10.35
2019-05-11T22:45:08.487Z,9.65
2019-05-11T22:47:39.296Z,17.82
2019-05-11T22:50:08.670Z,10.88
2019-05-11T22:52:40.408Z,12.07
2019-05-11T22:55:11.704Z,20.08
2019-05-11T22:57:38.990Z,13.03
2019-05-11T23:00:09.874Z,17.67
2019-05-11T23:02:38.512Z,19.48
2019-05-11T23:05:08.436Z,14.13
2019-05-11T23:07:41.154Z,11.83
2019-05-11T23:10:09.489Z,17.12
2019-05-11T23:12:38.511Z,15.37
2019-05-11T23:15:14.559Z,13.97
2019-05-11T23:17:43.053Z,9.70
2019-05-11T23:20:12.311Z,13.35
2019-05-11T23:22:58.069Z,11.12
2019-05-11T23:25:22.539Z,12.65
2019-05-11T23:27:50.963Z,10.35
2019-05-11T23:30:20.384Z,19.95
2019-05-11T23:32:49.776Z,10.30
2019-05-11T23:35:19.001Z,10.60
2019-05-11T23:37:49.515Z,12.03
2019-05-11T23:40:18.400Z,10.65
2019-05-11T23:42:49.083Z,14.32
2019-05-11T23:45:19.402Z,18.90
2019-05-11T23:47:48.868Z,13.53
2019-05-11T23:50:19.386Z,10.67
2019-05-11T23:53:03.960Z,11.45
2019-05-11T23:55:19.455Z,14.18
2019-05-11T23:57:49.129Z,20.70
